Time,TemperatureF,DewpointF,PressureIn,WindDirection,WindDirectionDegrees,WindSpeedMPH,WindSpeedGustMPH,Humidity,HourlyPrecipIn,Conditions,Clouds,dailyrainin,SoftwareType,DateUTC
2013-01-14 00:01:00,36.1,34.6,29.87,NW,315,0.0,0.0,94,0.00,,,0.00,Weather View 32 v70,2013-01-14 09:01:00,
2013-01-14 00:10:00,36.0,34.4,29.88,NW,315,0.0,0.0,94,0.00,,,0.00,Weather View 32 v70,2013-01-14 09:10:00,
2013-01-14 00:15:00,36.3,34.8,29.88,NW,315,0.0,0.0,94,0.00,,,0.00,Weather View 32 v70,2013-01-14 09:15:00,
2013-01-14 00:21:00,36.3,34.8,29.88,NW,315,0.0,0.0,94,0.00,,,0.00,Weather View 32 v70,2013-01-14 09:21:00,
2013-01-14 00:26:00,36.0,34.4,29.87,NW,315,0.0,0.0,94,0.00,,,0.00,Weather View 32 v70,2013-01-14 09:26:00,
2013-01-14 00:31:00,35.8,34.2,29.87,NW,315,0.0,0.0,94,0.00,,,0.00,Weather View 32 v70,2013-01-14 09:31:00,
2013-01-14 00:40:00,35.4,33.9,29.87,NW,315,0.0,0.0,94,0.00,,,0.00,Weather View 32 v70,2013-01-14 09:40:00,
2013-01-14 00:46:00,35.4,33.9,29.87,NW,315,0.0,0.0,94,0.00,,,0.00,Weather View 32 v70,2013-01-14 09:46:00,
2013-01-14 00:51:00,35.4,33.9,29.87,NW,315,0.0,0.0,94,0.03,,,0.03,Weather View 32 v70,2013-01-14 09:51:00,
2013-01-14 00:56:00,35.2,33.7,29.87,NW,315,0.0,0.0,94,0.03,,,0.03,Weather View 32 v70,2013-01-14 09:56:00,
2013-01-14 01:01:00,35.2,33.7,29.87,NW,315,0.0,0.0,94,0.03,,,0.03,Weather View 32 v70,2013-01-14 10:01:00,
2013-01-14 01:06:00,35.4,33.9,29.85,NW,315,0.0,0.0,94,0.03,,,0.03,Weather View 32 v70,2013-01-14 10:06:00,
2013-01-14 01:16:00,35.4,33.9,29.85,NW,315,0.0,0.0,94,0.03,,,0.03,Weather View 32 v70,2013-01-14 10:16:00,
2013-01-14 01:21:00,35.4,33.9,29.85,NW,315,0.0,0.0,94,0.03,,,0.03,Weather View 32 v70,2013-01-14 10:21:00,
2013-01-14 01:26:00,35.4,33.9,29.85,NW,315,0.0,0.0,94,0.03,,,0.03,Weather View 32 v70,2013-01-14 10:26:00,
2013-01-14 01:31:00,35.2,33.7,29.85,NW,315,0.0,0.0,94,0.06,,,0.06,Weather View 32 v70,2013-01-14 10:31:00,
2013-01-14 01:40:00,35.4,33.9,29.85,NW,315,0.0,0.0,94,0.06,,,0.06,Weather View 32 v70,2013-01-14 10:40:00,
2013-01-14 01:45:00,35.4,33.9,29.83,NW,315,0.0,0.0,94,0.06,,,0.06,Weather View 32 v70,2013-01-14 10:45:00,
2013-01-14 01:55:00,35.2,33.7,29.83,NW,315,1.0,1.0,94,0.03,,,0.06,Weather View 32 v70,2013-01-14 10:55:00,
2013-01-14 02:00:00,35.2,33.7,29.83,NW,315,0.0,1.0,94,0.03,,,0.06,Weather View 32 v70,2013-01-14 11:00:00,
2013-01-14 02:10:00,35.2,33.7,29.83,NW,315,0.0,1.0,94,0.03,,,0.06,Weather View 32 v70,2013-01-14 11:10:00,
2013-01-14 02:15:00,35.4,33.9,29.83,NW,315,0.0,1.0,94,0.03,,,0.06,Weather View 32 v70,2013-01-14 11:15:00,
2013-01-14 02:20:00,35.1,33.5,29.83,NW,315,0.0,1.0,94,0.03,,,0.06,Weather View 32 v70,2013-01-14 11:20:00,
2013-01-14 02:25:00,35.1,33.5,29.82,NW,315,0.0,1.0,94,0.03,,,0.06,Weather View 32 v70,2013-01-14 11:25:00,
2013-01-14 02:30:00,35.1,33.5,29.82,NW,315,0.0,1.0,94,0.00,,,0.06,Weather View 32 v70,2013-01-14 11:30:00,
2013-01-14 02:40:00,34.9,33.3,29.82,NW,315,0.0,1.0,94,0.03,,,0.09,Weather View 32 v70,2013-01-14 11:40:00,
2013-01-14 02:45:00,35.1,33.5,29.81,NW,315,0.0,1.0,94,0.03,,,0.09,Weather View 32 v70,2013-01-14 11:45:00,
2013-01-14 02:50:00,35.1,33.5,29.81,NW,315,0.0,1.0,94,0.03,,,0.09,Weather View 32 v70,2013-01-14 11:50:00,
2013-01-14 02:55:00,35.1,33.5,29.81,NW,315,0.0,1.0,94,0.03,,,0.09,Weather View 32 v70,2013-01-14 11:55:00,
2013-01-14 03:00:00,34.9,33.3,29.81,NW,315,0.0,0.0,94,0.03,,,0.09,Weather View 32 v70,2013-01-14 12:00:00,
2013-01-14 03:10:00,34.9,33.3,29.79,NW,315,0.0,0.0,94,0.06,,,0.12,Weather View 32 v70,2013-01-14 12:10:00,
2013-01-14 03:15:00,34.9,33.3,29.79,NW,315,0.0,0.0,94,0.06,,,0.12,Weather View 32 v70,2013-01-14 12:15:00,
2013-01-14 03:20:00,34.9,33.3,29.79,NW,315,0.0,0.0,94,0.06,,,0.12,Weather View 32 v70,2013-01-14 12:20:00,
2013-01-14 03:25:00,35.1,33.5,29.78,NW,315,0.0,0.0,94,0.06,,,0.12,Weather View 32 v70,2013-01-14 12:25:00,
2013-01-14 03:30:00,34.9,33.3,29.78,NW,315,0.0,0.0,94,0.06,,,0.12,Weather View 32 v70,2013-01-14 12:30:00,
2013-01-14 03:35:00,34.9,33.3,29.78,NW,315,0.0,0.0,94,0.03,,,0.12,Weather View 32 v70,2013-01-14 12:35:00,
2013-01-14 03:40:00,35.1,33.5,29.78,NW,315,1.0,1.0,94,0.03,,,0.12,Weather View 32 v70,2013-01-14 12:40:00,
2013-01-14 03:45:00,35.1,33.5,29.78,NW,315,2.0,2.0,94,0.03,,,0.12,Weather View 32 v70,2013-01-14 12:45:00,
2013-01-14 03:55:00,35.1,33.5,29.78,NE,45,1.0,2.0,94,0.06,,,0.15,Weather View 32 v70,2013-01-14 12:55:00,
2013-01-14 04:05:00,35.1,33.5,29.79,NE,45,1.0,2.0,94,0.03,,,0.15,Weather View 32 v70,2013-01-14 13:05:00,
2013-01-14 04:10:00,35.1,33.5,29.79,NE,45,1.0,2.0,94,0.03,,,0.15,Weather View 32 v70,2013-01-14 13:10:00,
2013-01-14 04:15:00,35.1,33.5,29.79,NE,45,1.0,2.0,94,0.03,,,0.15,Weather View 32 v70,2013-01-14 13:15:00,
2013-01-14 04:25:00,35.1,33.5,29.79,NE,45,1.0,2.0,94,0.06,,,0.18,Weather View 32 v70,2013-01-14 13:25:00,
2013-01-14 04:30:00,35.1,33.5,29.79,NE,45,0.0,2.0,94,0.06,,,0.18,Weather View 32 v70,2013-01-14 13:30:00,
2013-01-14 04:35:00,35.1,33.5,29.79,NE,45,0.0,2.0,94,0.06,,,0.18,Weather View 32 v70,2013-01-14 13:35:00,
2013-01-14 04:40:00,35.1,33.5,29.79,NE,45,1.0,2.0,94,0.06,,,0.18,Weather View 32 v70,2013-01-14 13:40:00,
2013-01-14 04:45:00,35.1,33.5,29.79,NE,45,1.0,2.0,94,0.06,,,0.18,Weather View 32 v70,2013-01-14 13:45:00,
2013-01-14 04:55:00,35.4,33.9,29.79,NE,45,1.0,1.0,94,0.03,,,0.18,Weather View 32 v70,2013-01-14 13:55:00,
2013-01-14 05:00:00,35.2,33.7,29.79,NE,45,0.0,1.0,94,0.03,,,0.18,Weather View 32 v70,2013-01-14 14:00:00,
2013-01-14 05:05:00,35.2,33.7,29.78,NE,45,0.0,1.0,94,0.03,,,0.18,Weather View 32 v70,2013-01-14 14:05:00,
2013-01-14 05:15:00,35.4,33.9,29.78,NE,45,1.0,1.0,94,0.03,,,0.18,Weather View 32 v70,2013-01-14 14:15:00,
2013-01-14 05:20:00,35.4,33.9,29.78,NE,45,1.0,1.0,94,0.00,,,0.18,Weather View 32 v70,2013-01-14 14:20:00,
2013-01-14 05:25:00,35.4,33.9,29.80,NNE,22,1.0,1.0,94,0.00,,,0.18,Weather View 32 v70,2013-01-14 14:25:00,
2013-01-14 05:35:00,35.4,33.9,29.80,NNE,22,1.0,1.0,94,0.00,,,0.18,Weather View 32 v70,2013-01-14 14:35:00,
2013-01-14 05:40:00,35.4,33.9,29.80,NNE,22,1.0,1.0,94,0.03,,,0.21,Weather View 32 v70,2013-01-14 14:40:00,
2013-01-14 05:45:00,35.2,33.7,29.80,NNE,22,0.0,1.0,94,0.03,,,0.21,Weather View 32 v70,2013-01-14 14:45:00,
2013-01-14 05:55:00,35.4,33.9,29.80,NNE,22,0.0,1.0,94,0.03,,,0.21,Weather View 32 v70,2013-01-14 14:55:00,
2013-01-14 06:00:00,35.1,33.5,29.80,NNE,22,0.0,1.0,94,0.03,,,0.21,Weather View 32 v70,2013-01-14 15:00:00,
2013-01-14 06:05:00,35.1,33.5,29.80,NNE,22,0.0,1.0,94,0.03,,,0.21,Weather View 32 v70,2013-01-14 15:05:00,
2013-01-14 06:10:00,35.1,33.5,29.80,NNE,22,0.0,1.0,94,0.03,,,0.21,Weather View 32 v70,2013-01-14 15:10:00,
2013-01-14 06:20:00,35.4,33.9,29.80,NNE,22,0.0,1.0,94,0.03,,,0.21,Weather View 32 v70,2013-01-14 15:20:00,
2013-01-14 06:25:00,35.4,33.9,29.79,NNE,22,0.0,1.0,94,0.03,,,0.21,Weather View 32 v70,2013-01-14 15:25:00,
2013-01-14 06:30:00,35.2,33.7,29.79,NNE,22,0.0,1.0,94,0.03,,,0.21,Weather View 32 v70,2013-01-14 15:30:00,
2013-01-14 06:40:00,35.2,33.7,29.79,NNE,22,1.0,1.0,94,0.00,,,0.21,Weather View 32 v70,2013-01-14 15:40:00,
2013-01-14 06:45:00,35.4,33.9,29.80,NNE,22,1.0,1.0,94,0.00,,,0.21,Weather View 32 v70,2013-01-14 15:45:00,
2013-01-14 06:55:00,35.2,33.7,29.80,NNE,22,1.0,1.0,94,0.00,,,0.21,Weather View 32 v70,2013-01-14 15:55:00,
2013-01-14 07:00:00,35.1,33.5,29.80,NNE,22,1.0,1.0,94,0.00,,,0.21,Weather View 32 v70,2013-01-14 16:00:00,
2013-01-14 07:05:00,34.9,33.3,29.77,NNE,22,1.0,1.0,94,0.00,,,0.21,Weather View 32 v70,2013-01-14 16:05:00,
2013-01-14 07:10:00,35.2,33.7,29.77,NNE,22,1.0,1.0,94,0.00,,,0.21,Weather View 32 v70,2013-01-14 16:10:00,
2013-01-14 07:15:00,35.2,33.7,29.77,NNE,22,1.0,1.0,94,0.00,,,0.21,Weather View 32 v70,2013-01-14 16:15:00,
2013-01-14 07:25:00,35.4,33.9,29.77,NNE,22,1.0,1.0,94,0.00,,,0.21,Weather View 32 v70,2013-01-14 16:25:00,
2013-01-14 07:31:00,35.4,33.9,29.77,NNE,22,1.0,1.0,94,0.00,,,0.21,Weather View 32 v70,2013-01-14 16:31:00,
2013-01-14 07:36:00,35.2,33.7,29.77,NNE,22,0.0,1.0,94,0.00,,,0.21,Weather View 32 v70,2013-01-14 16:36:00,
2013-01-14 07:45:00,34.9,33.3,29.80,NNE,22,0.0,1.0,94,0.00,,,0.21,Weather View 32 v70,2013-01-14 16:45:00,
2013-01-14 07:50:00,34.9,33.3,29.80,NNE,22,0.0,1.0,94,0.00,,,0.21,Weather View 32 v70,2013-01-14 16:50:00,
2013-01-14 07:55:00,34.7,33.1,29.80,NNE,22,0.0,1.0,94,0.00,,,0.21,Weather View 32 v70,2013-01-14 16:55:00,
2013-01-14 08:01:00,34.7,33.1,29.80,NNE,22,0.0,1.0,94,0.00,,,0.21,Weather View 32 v70,2013-01-14 17:01:00,
2013-01-14 08:11:00,34.9,33.3,29.79,NNE,22,0.0,1.0,94,0.00,,,0.21,Weather View 32 v70,2013-01-14 17:11:00,
2013-01-14 08:16:00,34.7,33.1,29.79,NNE,22,0.0,1.0,94,0.00,,,0.21,Weather View 32 v70,2013-01-14 17:16:00,
2013-01-14 08:26:00,34.2,32.6,29.79,NNE,22,1.0,1.0,94,0.00,,,0.21,Weather View 32 v70,2013-01-14 17:26:00,
2013-01-14 08:31:00,34.3,32.8,29.79,NNE,22,1.0,1.0,94,0.00,,,0.21,Weather View 32 v70,2013-01-14 17:31:00,
2013-01-14 08:36:00,34.2,32.6,29.79,NNE,22,1.0,1.0,94,0.00,,,0.21,Weather View 32 v70,2013-01-14 17:36:00,
2013-01-14 08:41:00,34.3,32.8,29.79,NNE,22,1.0,1.0,94,0.00,,,0.21,Weather View 32 v70,2013-01-14 17:41:00,
2013-01-14 08:51:00,34.3,32.8,29.80,NNE,22,2.0,2.0,94,0.00,,,0.21,Weather View 32 v70,2013-01-14 17:51:00,
2013-01-14 09:01:00,34.7,33.1,29.80,NNE,22,2.0,2.0,94,0.00,,,0.21,Weather View 32 v70,2013-01-14 18:01:00,
2013-01-14 09:06:00,34.3,32.8,29.77,NNE,22,1.0,2.0,94,0.00,,,0.21,Weather View 32 v70,2013-01-14 18:06:00,
2013-01-14 09:16:00,34.7,33.1,29.77,North,0,1.0,2.0,94,0.00,,,0.21,Weather View 32 v70,2013-01-14 18:16:00,
2013-01-14 09:21:00,34.7,33.1,29.77,North,0,1.0,2.0,94,0.00,,,0.21,Weather View 32 v70,2013-01-14 18:21:00,
2013-01-14 09:31:00,34.7,33.1,29.80,North,0,1.0,2.0,94,0.00,,,0.21,Weather View 32 v70,2013-01-14 18:31:00,
2013-01-14 09:36:00,34.7,33.1,29.80,North,0,1.0,2.0,94,0.00,,,0.21,Weather View 32 v70,2013-01-14 18:36:00,
2013-01-14 09:45:00,34.7,33.1,29.80,North,0,1.0,2.0,94,0.00,,,0.21,Weather View 32 v70,2013-01-14 18:45:00,
2013-01-14 09:50:00,34.7,33.1,29.80,North,0,1.0,2.0,94,0.00,,,0.21,Weather View 32 v70,2013-01-14 18:50:00,
2013-01-14 09:55:00,34.7,33.1,29.80,North,0,1.0,2.0,94,0.00,,,0.21,Weather View 32 v70,2013-01-14 18:55:00,
2013-01-14 10:00:00,34.7,33.1,29.80,North,0,1.0,2.0,94,0.00,,,0.21,Weather View 32 v70,2013-01-14 19:00:00,
2013-01-14 10:10:00,34.9,33.3,29.81,NNE,22,2.0,2.0,94,0.00,,,0.21,Weather View 32 v70,2013-01-14 19:10:00,
2013-01-14 10:15:00,34.9,33.3,29.81,NNE,22,2.0,2.0,94,0.00,,,0.21,Weather View 32 v70,2013-01-14 19:15:00,
2013-01-14 10:25:00,35.1,33.5,29.85,NNE,22,2.0,2.0,94,0.00,,,0.21,Weather View 32 v70,2013-01-14 19:25:00,
2013-01-14 10:30:00,35.4,33.9,29.85,NNE,22,2.0,2.0,94,0.00,,,0.21,Weather View 32 v70,2013-01-14 19:30:00,
2013-01-14 10:35:00,35.6,34.0,29.85,NNE,22,2.0,2.0,94,0.00,,,0.21,Weather View 32 v70,2013-01-14 19:35:00,
2013-01-14 10:40:00,36.1,34.6,29.85,NNE,22,3.0,3.0,94,0.00,,,0.21,Weather View 32 v70,2013-01-14 19:40:00,
2013-01-14 10:50:00,36.3,34.8,29.89,NNE,22,4.0,4.0,94,0.00,,,0.21,Weather View 32 v70,2013-01-14 19:50:00,
2013-01-14 10:55:00,36.5,34.9,29.89,NNE,22,3.0,4.0,94,0.00,,,0.21,Weather View 32 v70,2013-01-14 19:55:00,
2013-01-14 11:00:00,36.3,34.8,29.89,NNE,22,2.0,4.0,94,0.00,,,0.21,Weather View 32 v70,2013-01-14 20:00:00,
2013-01-14 11:05:00,36.5,34.9,29.90,NNE,22,2.0,4.0,94,0.00,,,0.21,Weather View 32 v70,2013-01-14 20:05:00,
2013-01-14 11:15:00,36.5,34.9,29.90,NNE,22,2.0,4.0,94,0.00,,,0.21,Weather View 32 v70,2013-01-14 20:15:00,
2013-01-14 11:20:00,36.3,34.8,29.90,NNE,22,1.0,4.0,94,0.00,,,0.21,Weather View 32 v70,2013-01-14 20:20:00,
2013-01-14 11:25:00,36.3,34.8,29.91,NNE,22,1.0,4.0,94,0.00,,,0.21,Weather View 32 v70,2013-01-14 20:25:00,
2013-01-14 11:30:00,36.5,34.9,29.91,NNE,22,1.0,4.0,94,0.00,,,0.21,Weather View 32 v70,2013-01-14 20:30:00,
2013-01-14 11:40:00,37.0,35.5,29.91,NNE,22,2.0,4.0,94,0.00,,,0.21,Weather View 32 v70,2013-01-14 20:40:00,
2013-01-14 11:45:00,37.0,35.5,29.92,NNE,22,3.0,4.0,94,0.00,,,0.21,Weather View 32 v70,2013-01-14 20:45:00,
2013-01-14 11:52:00,37.2,35.7,29.92,NNE,22,2.0,4.0,94,0.00,,,0.21,Weather View 32 v70,2013-01-14 20:52:00,
2013-01-14 12:00:00,37.2,35.7,29.92,NNE,22,1.0,3.0,94,0.00,,,0.21,Weather View 32 v70,2013-01-14 21:00:00,
2013-01-14 12:10:00,37.0,35.5,29.94,NNE,22,1.0,3.0,94,0.00,,,0.21,Weather View 32 v70,2013-01-14 21:10:00,
2013-01-14 12:15:00,37.2,35.7,29.94,North,0,0.0,3.0,94,0.00,,,0.21,Weather View 32 v70,2013-01-14 21:15:00,
2013-01-14 12:20:00,37.2,35.7,29.94,North,0,1.0,3.0,94,0.00,,,0.21,Weather View 32 v70,2013-01-14 21:20:00,
2013-01-14 12:30:00,37.2,35.7,29.96,NNW,338,2.0,3.0,94,0.00,,,0.21,Weather View 32 v70,2013-01-14 21:30:00,
2013-01-14 12:35:00,37.4,35.8,29.96,NNW,338,2.0,3.0,94,0.00,,,0.21,Weather View 32 v70,2013-01-14 21:35:00,
2013-01-14 12:45:00,37.8,36.2,29.97,NNW,338,2.0,3.0,94,0.00,,,0.21,Weather View 32 v70,2013-01-14 21:45:00,
2013-01-14 12:50:00,37.4,35.8,29.97,NNW,338,1.0,2.0,94,0.00,,,0.21,Weather View 32 v70,2013-01-14 21:50:00,
2013-01-14 12:55:00,37.4,35.8,29.97,NNW,338,1.0,2.0,94,0.00,,,0.21,Weather View 32 v70,2013-01-14 21:55:00,
2013-01-14 13:00:00,37.0,35.5,29.97,NNW,338,0.0,2.0,94,0.00,,,0.21,Weather View 32 v70,2013-01-14 22:00:00,
2013-01-14 13:05:00,36.9,35.3,29.99,NNW,338,0.0,2.0,94,0.00,,,0.21,Weather View 32 v70,2013-01-14 22:05:00,
2013-01-14 13:15:00,36.9,35.3,29.99,NNW,338,1.0,2.0,94,0.00,,,0.21,Weather View 32 v70,2013-01-14 22:15:00,
2013-01-14 13:20:00,37.0,35.5,29.99,NNW,338,0.0,2.0,94,0.00,,,0.21,Weather View 32 v70,2013-01-14 22:20:00,
2013-01-14 13:25:00,37.2,35.7,29.99,NNW,338,0.0,2.0,94,0.00,,,0.21,Weather View 32 v70,2013-01-14 22:25:00,
2013-01-14 13:30:00,37.2,35.7,29.99,NNW,338,0.0,2.0,94,0.00,,,0.21,Weather View 32 v70,2013-01-14 22:30:00,
2013-01-14 13:35:00,37.0,35.5,29.99,NNW,338,1.0,2.0,94,0.00,,,0.21,Weather View 32 v70,2013-01-14 22:35:00,
2013-01-14 13:45:00,37.2,35.7,30.00,NNW,338,1.0,2.0,94,0.00,,,0.21,Weather View 32 v70,2013-01-14 22:45:00,
2013-01-14 13:50:00,37.6,35.7,30.00,North,0,2.0,2.0,93,0.00,,,0.21,Weather View 32 v70,2013-01-14 22:50:00,
2013-01-14 14:00:00,37.9,36.1,30.00,North,0,3.0,3.0,93,0.00,,,0.21,Weather View 32 v70,2013-01-14 23:00:00,
2013-01-14 14:05:00,37.8,35.9,30.01,NNE,22,3.0,3.0,93,0.00,,,0.21,Weather View 32 v70,2013-01-14 23:05:00,
2013-01-14 14:15:00,37.9,36.1,30.01,NNE,22,3.0,3.0,93,0.00,,,0.21,Weather View 32 v70,2013-01-14 23:15:00,
2013-01-14 14:20:00,37.8,35.9,30.01,North,0,3.0,3.0,93,0.00,,,0.21,Weather View 32 v70,2013-01-14 23:20:00,
2013-01-14 14:25:00,37.9,36.1,30.01,North,0,3.0,3.0,93,0.00,,,0.21,Weather View 32 v70,2013-01-14 23:25:00,
2013-01-14 14:30:00,38.3,36.7,30.01,NNE,22,3.0,3.0,94,0.00,,,0.21,Weather View 32 v70,2013-01-14 23:30:00,
2013-01-14 14:40:00,37.9,36.1,30.01,NNE,22,2.0,3.0,93,0.00,,,0.21,Weather View 32 v70,2013-01-14 23:40:00,
2013-01-14 14:45:00,37.9,36.1,30.03,North,0,2.0,3.0,93,0.00,,,0.21,Weather View 32 v70,2013-01-14 23:45:00,
2013-01-14 14:50:00,37.9,36.1,30.03,North,0,3.0,3.0,93,0.00,,,0.21,Weather View 32 v70,2013-01-14 23:50:00,
2013-01-14 14:55:00,37.9,36.1,30.03,North,0,2.0,3.0,93,0.00,,,0.21,Weather View 32 v70,2013-01-14 23:55:00,
2013-01-14 15:00:00,37.9,36.1,30.03,NNE,22,2.0,3.0,93,0.00,,,0.21,Weather View 32 v70,2013-01-15 00:00:00,
2013-01-14 15:05:00,37.8,35.9,30.04,NNE,22,3.0,3.0,93,0.00,,,0.21,Weather View 32 v70,2013-01-15 00:05:00,
2013-01-14 15:15:00,37.2,35.4,30.04,North,0,2.0,3.0,93,0.00,,,0.21,Weather View 32 v70,2013-01-15 00:15:00,
2013-01-14 15:21:00,37.2,35.4,30.04,NNE,22,2.0,3.0,93,0.00,,,0.21,Weather View 32 v70,2013-01-15 00:21:00,
2013-01-14 15:30:00,37.9,36.1,30.06,NNE,22,3.0,3.0,93,0.00,,,0.21,Weather View 32 v70,2013-01-15 00:30:00,
2013-01-14 15:35:00,38.3,36.5,30.06,NNE,22,4.0,4.0,93,0.00,,,0.21,Weather View 32 v70,2013-01-15 00:35:00,
2013-01-14 15:41:00,37.9,36.1,30.06,NNE,22,4.0,4.0,93,0.00,,,0.21,Weather View 32 v70,2013-01-15 00:41:00,
2013-01-14 15:46:00,37.8,35.6,30.08,North,0,4.0,4.0,92,0.00,,,0.21,Weather View 32 v70,2013-01-15 00:46:00,
2013-01-14 15:55:00,37.8,35.6,30.08,NNE,22,4.0,4.0,92,0.00,,,0.21,Weather View 32 v70,2013-01-15 00:55:00,
2013-01-14 16:01:00,37.2,35.1,30.08,North,0,2.0,4.0,92,0.00,,,0.21,Weather View 32 v70,2013-01-15 01:01:00,
2013-01-14 16:06:00,37.2,35.1,30.07,North,0,1.0,4.0,92,0.00,,,0.21,Weather View 32 v70,2013-01-15 01:06:00,
2013-01-14 16:11:00,36.9,34.8,30.07,North,0,1.0,4.0,92,0.00,,,0.21,Weather View 32 v70,2013-01-15 01:11:00,
2013-01-14 16:21:00,36.9,34.8,30.07,NNE,22,2.0,4.0,92,0.00,,,0.21,Weather View 32 v70,2013-01-15 01:21:00,
2013-01-14 16:26:00,37.0,34.7,30.07,NNE,22,2.0,4.0,91,0.00,,,0.21,Weather View 32 v70,2013-01-15 01:26:00,
2013-01-14 16:31:00,37.0,34.7,30.07,NNE,22,2.0,4.0,91,0.00,,,0.21,Weather View 32 v70,2013-01-15 01:31:00,
2013-01-14 16:40:00,36.9,34.5,30.07,NNE,22,1.0,4.0,91,0.00,,,0.21,Weather View 32 v70,2013-01-15 01:40:00,
2013-01-14 16:45:00,36.5,34.1,30.08,NNW,338,2.0,4.0,91,0.00,,,0.21,Weather View 32 v70,2013-01-15 01:45:00,
2013-01-14 16:50:00,36.5,34.1,30.08,NNE,22,2.0,4.0,91,0.00,,,0.21,Weather View 32 v70,2013-01-15 01:50:00,
2013-01-14 17:00:00,37.4,34.2,30.08,NNW,338,5.0,5.0,88,0.00,,,0.21,Weather View 32 v70,2013-01-15 02:00:00,
2013-01-14 17:10:00,37.6,33.8,30.05,NNE,22,7.0,7.0,86,0.00,,,0.21,Weather View 32 v70,2013-01-15 02:10:00,
2013-01-14 17:15:00,37.6,33.5,30.05,NNE,22,7.0,7.0,85,0.00,,,0.21,Weather View 32 v70,2013-01-15 02:15:00,
2013-01-14 17:20:00,37.6,33.5,30.05,NNE,22,8.0,8.0,85,0.00,,,0.21,Weather View 32 v70,2013-01-15 02:20:00,
2013-01-14 17:25:00,37.6,33.5,30.06,North,0,7.0,8.0,85,0.00,,,0.21,Weather View 32 v70,2013-01-15 02:25:00,
2013-01-14 17:30:00,37.6,32.9,30.06,NE,45,7.0,8.0,83,0.00,,,0.21,Weather View 32 v70,2013-01-15 02:30:00,
2013-01-14 17:40:00,37.6,32.9,30.06,NNW,338,8.0,8.0,83,0.00,,,0.21,Weather View 32 v70,2013-01-15 02:40:00,
2013-01-14 17:45:00,37.6,32.6,30.07,NNE,22,8.0,8.0,82,0.00,,,0.21,Weather View 32 v70,2013-01-15 02:45:00,
2013-01-14 17:55:00,37.2,31.9,30.07,NNE,22,8.0,8.0,81,0.00,,,0.21,Weather View 32 v70,2013-01-15 02:55:00,
2013-01-14 18:00:00,37.0,31.4,30.07,North,0,8.0,8.0,80,0.00,,,0.21,Weather View 32 v70,2013-01-15 03:00:00,
2013-01-14 18:10:00,37.0,30.8,30.08,NNE,22,7.0,8.0,78,0.00,,,0.21,Weather View 32 v70,2013-01-15 03:10:00,
2013-01-14 18:15:00,36.9,31.3,30.08,NNE,22,7.0,8.0,80,0.00,,,0.21,Weather View 32 v70,2013-01-15 03:15:00,
2013-01-14 18:20:00,36.5,30.9,30.08,NNE,22,5.0,8.0,80,0.00,,,0.21,Weather View 32 v70,2013-01-15 03:20:00,
2013-01-14 18:30:00,36.3,30.4,30.09,North,0,6.0,8.0,79,0.00,,,0.21,Weather View 32 v70,2013-01-15 03:30:00,
2013-01-14 18:35:00,36.1,30.3,30.09,NNE,22,6.0,8.0,79,0.00,,,0.21,Weather View 32 v70,2013-01-15 03:35:00,
2013-01-14 18:40:00,36.1,30.3,30.09,NNE,22,6.0,8.0,79,0.00,,,0.21,Weather View 32 v70,2013-01-15 03:40:00,
2013-01-14 18:45:00,35.8,29.9,30.10,NNE,22,6.0,8.0,79,0.00,,,0.21,Weather View 32 v70,2013-01-15 03:45:00,
2013-01-14 18:55:00,35.4,29.2,30.10,NNE,22,6.0,8.0,78,0.00,,,0.21,Weather View 32 v70,2013-01-15 03:55:00,
2013-01-14 19:00:00,35.6,29.4,30.10,NNE,22,6.0,8.0,78,0.00,,,0.21,Weather View 32 v70,2013-01-15 04:00:00,
2013-01-14 19:05:00,35.6,29.1,30.11,NNE,22,6.0,7.0,77,0.00,,,0.21,Weather View 32 v70,2013-01-15 04:05:00,
2013-01-14 19:15:00,35.6,29.1,30.11,NNE,22,6.0,7.0,77,0.00,,,0.21,Weather View 32 v70,2013-01-15 04:15:00,
2013-01-14 19:20:00,35.4,28.6,30.11,NNE,22,6.0,6.0,76,0.00,,,0.21,Weather View 32 v70,2013-01-15 04:20:00,
2013-01-14 19:25:00,35.4,28.9,30.11,NNE,22,6.0,6.0,77,0.00,,,0.21,Weather View 32 v70,2013-01-15 04:25:00,
2013-01-14 19:30:00,35.4,28.6,30.11,NNE,22,6.0,6.0,76,0.00,,,0.21,Weather View 32 v70,2013-01-15 04:30:00,
2013-01-14 19:35:00,35.1,28.3,30.11,NNE,22,6.0,6.0,76,0.00,,,0.21,Weather View 32 v70,2013-01-15 04:35:00,
2013-01-14 19:45:00,35.1,27.6,30.12,NNE,22,7.0,7.0,74,0.00,,,0.21,Weather View 32 v70,2013-01-15 04:45:00,
2013-01-14 19:50:00,35.1,27.3,30.12,NNE,22,7.0,7.0,73,0.00,,,0.21,Weather View 32 v70,2013-01-15 04:50:00,
2013-01-14 19:55:00,35.1,27.6,30.12,NNE,22,7.0,7.0,74,0.00,,,0.21,Weather View 32 v70,2013-01-15 04:55:00,
2013-01-14 20:05:00,34.7,26.6,30.13,NNE,22,6.0,7.0,72,0.00,,,0.21,Weather View 32 v70,2013-01-15 05:05:00,
2013-01-14 20:10:00,34.7,26.3,30.13,NE,45,6.0,7.0,71,0.00,,,0.21,Weather View 32 v70,2013-01-15 05:10:00,
2013-01-14 20:15:00,34.7,25.9,30.13,NNE,22,7.0,7.0,70,0.00,,,0.21,Weather View 32 v70,2013-01-15 05:15:00,
2013-01-14 20:20:00,34.7,25.6,30.13,NNE,22,8.0,8.0,69,0.00,,,0.21,Weather View 32 v70,2013-01-15 05:20:00,
2013-01-14 20:25:00,34.7,25.2,30.13,NNE,22,7.0,8.0,68,0.00,,,0.21,Weather View 32 v70,2013-01-15 05:25:00,
2013-01-14 20:30:00,34.3,25.2,30.13,North,0,7.0,8.0,69,0.00,,,0.21,Weather View 32 v70,2013-01-15 05:30:00,
2013-01-14 20:35:00,34.3,24.5,30.13,NNW,338,7.0,8.0,67,0.00,,,0.21,Weather View 32 v70,2013-01-15 05:35:00,
2013-01-14 20:40:00,34.3,24.5,30.13,NNE,22,8.0,8.0,67,0.00,,,0.21,Weather View 32 v70,2013-01-15 05:40:00,
2013-01-14 20:45:00,34.3,24.5,30.13,NNE,22,8.0,8.0,67,0.00,,,0.21,Weather View 32 v70,2013-01-15 05:45:00,
2013-01-14 20:55:00,34.2,24.7,30.13,North,0,7.0,8.0,68,0.00,,,0.21,Weather View 32 v70,2013-01-15 05:55:00,
2013-01-14 21:00:00,34.0,24.5,30.13,NNE,22,7.0,8.0,68,0.00,,,0.21,Weather View 32 v70,2013-01-15 06:00:00,
2013-01-14 21:05:00,33.8,24.7,30.15,NNE,22,7.0,8.0,69,0.00,,,0.21,Weather View 32 v70,2013-01-15 06:05:00,
2013-01-14 21:10:00,33.4,24.4,30.15,NNE,22,6.0,8.0,69,0.00,,,0.21,Weather View 32 v70,2013-01-15 06:10:00,
2013-01-14 21:20:00,33.1,24.0,30.15,NNE,22,6.0,8.0,69,0.00,,,0.21,Weather View 32 v70,2013-01-15 06:20:00,
2013-01-14 21:25:00,33.1,24.0,30.16,NNE,22,7.0,8.0,69,0.00,,,0.21,Weather View 32 v70,2013-01-15 06:25:00,
2013-01-14 21:30:00,33.3,23.5,30.16,North,0,8.0,8.0,67,0.00,,,0.21,Weather View 32 v70,2013-01-15 06:30:00,
2013-01-14 21:35:00,33.3,23.5,30.16,NNW,338,8.0,8.0,67,0.00,,,0.21,Weather View 32 v70,2013-01-15 06:35:00,
2013-01-14 21:45:00,32.7,23.0,30.16,NNE,22,9.0,9.0,67,0.00,,,0.21,Weather View 32 v70,2013-01-15 06:45:00,
2013-01-14 21:50:00,32.7,23.3,30.16,NNW,338,7.0,9.0,68,0.00,,,0.21,Weather View 32 v70,2013-01-15 06:50:00,
2013-01-14 21:55:00,32.5,22.8,30.16,NNE,22,7.0,9.0,67,0.00,,,0.21,Weather View 32 v70,2013-01-15 06:55:00,
2013-01-14 22:00:00,32.4,22.3,30.16,NNE,22,7.0,9.0,66,0.00,,,0.21,Weather View 32 v70,2013-01-15 07:00:00,
2013-01-14 22:06:00,32.2,22.1,30.17,NNE,22,7.0,9.0,66,0.00,,,0.21,Weather View 32 v70,2013-01-15 07:06:00,
2013-01-14 22:16:00,31.8,21.8,30.17,NNE,22,7.0,9.0,66,0.00,,,0.21,Weather View 32 v70,2013-01-15 07:16:00,
2013-01-14 22:21:00,32.0,21.9,30.17,NNE,22,7.0,9.0,66,0.00,,,0.21,Weather View 32 v70,2013-01-15 07:21:00,
2013-01-14 22:26:00,31.8,22.1,30.17,NNE,22,7.0,9.0,67,0.00,,,0.21,Weather View 32 v70,2013-01-15 07:26:00,
2013-01-14 22:36:00,31.5,21.8,30.17,NNE,22,6.0,9.0,67,0.00,,,0.21,Weather View 32 v70,2013-01-15 07:36:00,
2013-01-14 22:41:00,31.5,22.1,30.17,SSW,202,7.0,9.0,68,0.00,,,0.21,Weather View 32 v70,2013-01-15 07:41:00,
2013-01-14 22:46:00,31.5,22.5,30.18,North,0,6.0,9.0,69,0.00,,,0.21,Weather View 32 v70,2013-01-15 07:46:00,
2013-01-14 22:51:00,31.5,22.8,30.18,North,0,6.0,8.0,70,0.00,,,0.21,Weather View 32 v70,2013-01-15 07:51:00,
2013-01-14 22:56:00,31.3,22.6,30.18,NNE,22,6.0,8.0,70,0.00,,,0.21,Weather View 32 v70,2013-01-15 07:56:00,
2013-01-14 23:06:00,30.9,22.6,30.19,NNW,338,5.0,8.0,71,0.00,,,0.21,Weather View 32 v70,2013-01-15 08:06:00,
2013-01-14 23:11:00,30.7,22.4,30.19,NNE,22,4.0,8.0,71,0.00,,,0.21,Weather View 32 v70,2013-01-15 08:11:00,
2013-01-14 23:16:00,30.7,22.4,30.19,NNE,22,4.0,7.0,71,0.00,,,0.21,Weather View 32 v70,2013-01-15 08:16:00,
2013-01-14 23:26:00,30.4,22.1,30.20,NNE,22,4.0,7.0,71,0.00,,,0.21,Weather View 32 v70,2013-01-15 08:26:00,
2013-01-14 23:31:00,30.4,22.1,30.20,NNE,22,4.0,7.0,71,0.00,,,0.21,Weather View 32 v70,2013-01-15 08:31:00,
2013-01-14 23:36:00,30.4,21.8,30.20,NNE,22,4.0,7.0,70,0.00,,,0.21,Weather View 32 v70,2013-01-15 08:36:00,
2013-01-14 23:45:00,30.0,21.4,30.21,NNE,22,3.0,7.0,70,0.00,,,0.21,Weather View 32 v70,2013-01-15 08:45:00,
2013-01-14 23:50:00,29.7,21.1,30.21,NNE,22,4.0,6.0,70,0.00,,,0.21,Weather View 32 v70,2013-01-15 08:50:00,
2013-01-14 23:55:00,29.7,21.1,30.21,North,0,3.0,6.0,70,0.00,,,0.21,Weather View 32 v70,2013-01-15 08:55:00,